Caloundra, Queensland

7:50 PM AEST on December 26, 2014 (GMT +1000)
Bellvista | Change Station
CLOSE
Current Station
Personal Weather Station
Location: Caloundra, QUEENSLAND
Elevation: 38 ft
Nearby Weather Stations

Elev 38 ft 26.79 °S, 153.09 °E | Updated 4 minutes ago

Mostly Cloudy
Mostly Cloudy
77.0 °F
Feels Like 78 °F
N
1.6
Wind Variable Wind from North
Gusts 3.1 mph

Today
High -- | Low -- °F
--% Chance of Precip.
Yesterday
High -- | Low -- °F
Precip. -- in
4:53 AM 6:42 PM
Waxing Crescent, 24% visible
Pressure 29.86 in
Visibility 6.2 miles
Clouds Few 1800 ft
Mostly Cloudy 13500 ft
Mostly Cloudy 17000 ft
Heat Index 78 °F
Dew Point 76 °F
Humidity 96%
Rainfall 0.04 in
Snow Depth Not available.
UV 0 out of 12
Pollen Not available.
Air Quality Not available.
Flu Activity Not available.
METAR YBBN 260930Z 36012KT 9999 FEW018 BKN135 BKN170 26/22 Q1011

More Conditions Fewer Conditions

Pressure 29.86 in
Visibility 6.2 miles
Clouds Few 1800 ft
Mostly Cloudy 13500 ft
Mostly Cloudy 17000 ft
Heat Index 78 °F
Dew Point 76 °F
Humidity 96%
Rainfall 0.04 in
Snow Depth Not available.
UV 0 out of 12
Pollen Not available.
Air Quality Not available.
Flu Activity Not available.
METAR YBBN 260930Z 36012KT 9999 FEW018 BKN135 BKN170 26/22 Q1011

More Conditions Fewer Conditions

10-Day Weather Forecast

Almanac

Astronomy

Dec. 26, 2014 Rise Set
Actual Time
Civil Twilight
Nautical Twilight
Astronomical Twilight
Moon
Length of Visible Light
Length of Day
Tomorrow will be .
, % of the Moon is Illuminated

Today's Extremes

Country Highs Country Lows

Community

WunderPhotos

Upload Photos

1,780,568 photos uploaded!

WunderBlogs® & News

Nearby

Air Quality

  Air Quality AQ Index Pollutant
Not available.

Snow Depth

Station Depth Elevation

Earthquake Activity

City Distance Mag. Time & Date
Minimum magnitude displayed is 2.5.

Coastal Water Temperatures

Place Temperature

Nearby Weather Stations